Time;durP1;ratioP1;P1;durP2;ratioP2;P2;SDS_P1;SDS_P2;PMS_P1;PMS_P2;Temp;Humidity;BMP_temperature;BMP_pressure;BME280_temperature;BME280_humidity;BME280_pressure;Samples;Min_cycle;Max_cycle;Signal;HPM_P1;HPM_P2
2022/08/08 00:01:37;;;;;;;;;;;;;;;;;;4915618;29;7186;-58
2022/08/08 00:07:16;;;;;;;;;;;;;;;;;;4915862;29;6932;-58
2022/08/08 00:09:48;;;;;;;;;;;;;;;;;;4915674;29;7039;-58
2022/08/08 00:12:35;;;;;;;;;;;;;;;;;;4915709;28;7247;-58
2022/08/08 00:15:20;;;;;;;;;;;;;;;;;;4915626;29;6962;-58
2022/08/08 00:24:27;;;;;;;;;;;;;;;;;;4915600;29;6837;-59
2022/08/08 00:27:23;;;;;;;;;;;;;;;;;;4860436;29;8798;-58
2022/08/08 00:39:10;;;;;;;;;;;;;;;;;;4876432;29;6797;-58
2022/08/08 00:41:49;;;;;;;;;;;;;;;;;;4875938;29;7235;-58
2022/08/08 00:44:40;;;;;;;;;;;;;;;;;;4875734;29;6832;-58
2022/08/08 00:47:51;;;;;;;;;;;;;;;;;;4875621;29;7078;-58
2022/08/08 01:02:29;;;;;;;;;;;;;;;;;;4860407;29;6998;-58
2022/08/08 01:08:18;;;;;;;;;;;;;;;;;;4860211;29;6938;-58
2022/08/08 01:10:52;;;;;;;;;;;;;;;;;;4860052;29;7018;-58
2022/08/08 01:19:09;;;;;;;;;;;;;;;;;;4860180;29;6975;-58
2022/08/08 01:21:54;;;;;;;;;;;;;;;;;;4903476;28;7329;-58
2022/08/08 01:27:11;;;;;;;;;;;;;;;;;;4918813;29;7033;-58
2022/08/08 01:39:04;;;;;;;;;;;;;;;;;;4917388;29;6697;-58
2022/08/08 01:50:34;;;;;;;;;;;;;;;;;;4917943;29;7032;-58
2022/08/08 01:53:02;;;;;;;;;;;;;;;;;;4917718;29;7195;-58
2022/08/08 01:55:45;;;;;;;;;;;;;;;;;;4917578;28;7491;-58
2022/08/08 01:58:35;;;;;;;;;;;;;;;;;;4917915;28;7201;-58
2022/08/08 02:01:41;;;;;;;;;;;;;;;;;;4917153;28;7116;-58
2022/08/08 02:04:25;;;;;;;;;;;;;;;;;;4905861;29;7134;-58
2022/08/08 02:06:56;;;;;;;;;;;;;;;;;;4918116;29;7040;-59
2022/08/08 02:09:59;;;;;;;;;;;;;;;;;;4917231;29;6979;-58
2022/08/08 02:12:29;;;;;;;;;;;;;;;;;;4917350;28;7373;-58
2022/08/08 02:27:06;;;;;;;;;;;;;;;;;;4917527;28;6837;-58
2022/08/08 02:29:51;;;;;;;;;;;;;;;;;;4917107;29;7224;-58
2022/08/08 02:32:26;;;;;;;;;;;;;;;;;;4916831;29;6947;-58
2022/08/08 02:50:22;;;;;;;;;;;;;;;;;;4916258;29;6685;-58
2022/08/08 03:02:08;;;;;;;;;;;;;;;;;;4996454;28;7009;-58
2022/08/08 03:07:45;;;;;;;;;;;;;;;;;;4995830;28;6692;-57
2022/08/08 03:10:35;;;;;;;;;;;;;;;;;;4996381;28;7256;-57
2022/08/08 03:13:16;;;;;;;;;;;;;;;;;;4995856;28;8121;-57
2022/08/08 03:24:50;;;;;;;;;;;;;;;;;;4916104;28;6698;-58
2022/08/08 03:27:24;;;;;;;;;;;;;;;;;;4976674;28;7217;-58
2022/08/08 03:30:12;;;;;;;;;;;;;;;;;;4995804;28;7215;-58
2022/08/08 03:35:27;;;;;;;;;;;;;;;;;;4996119;28;6922;-58
2022/08/08 03:37:53;;;;;;;;;;;;;;;;;;4995668;28;7195;-58
2022/08/08 03:40:20;;;;;;;;;;;;;;;;;;4995582;28;7045;-58
2022/08/08 03:42:47;;;;;;;;;;;;;;;;;;4995603;28;7373;-58
2022/08/08 03:51:18;;;;;;;;;;;;;;;;;;4995315;28;7411;-60
2022/08/08 03:57:18;;;;;;;;;;;;;;;;;;4995241;28;6718;-60
2022/08/08 03:59:43;;;;;;;;;;;;;;;;;;4964228;28;7218;-60
2022/08/08 04:05:12;;;;;;;;;;;;;;;;;;4915511;29;6986;-60
2022/08/08 04:10:44;;;;;;;;;;;;;;;;;;4915389;29;6955;-61
2022/08/08 04:13:10;;;;;;;;;;;;;;;;;;4915629;29;7221;-61
2022/08/08 04:18:38;;;;;;;;;;;;;;;;;;4911251;29;7115;-61
2022/08/08 04:21:04;;;;;;;;;;;;;;;;;;4915335;29;6942;-61
2022/08/08 04:23:29;;;;;;;;;;;;;;;;;;4914865;28;7638;-61
2022/08/08 04:29:12;;;;;;;;;;;;;;;;;;4916700;29;7479;-61
2022/08/08 04:31:38;;;;;;;;;;;;;;;;;;4918794;28;9028;-61
2022/08/08 04:34:38;;;;;;;;;;;;;;;;;;4918709;29;6950;-61
2022/08/08 04:37:04;;;;;;;;;;;;;;;;;;4918567;29;7065;-61
2022/08/08 04:39:48;;;;;;;;;;;;;;;;;;4918268;29;7060;-61
2022/08/08 04:42:14;;;;;;;;;;;;;;;;;;4901831;29;7073;-61
2022/08/08 04:44:56;;;;;;;;;;;;;;;;;;4903163;28;7172;-61
2022/08/08 04:47:22;;;;;;;;;;;;;;;;;;4882677;29;8844;-61
2022/08/08 04:49:59;;;;;;;;;;;;;;;;;;4899296;29;7167;-61
2022/08/08 04:52:25;;;;;;;;;;;;;;;;;;4899585;29;7143;-61
2022/08/08 04:54:53;;;;;;;;;;;;;;;;;;4899605;29;7144;-61
2022/08/08 04:57:19;;;;;;;;;;;;;;;;;;4899370;29;7220;-61
2022/08/08 04:59:57;;;;;;;;;;;;;;;;;;4898730;29;7228;-61
2022/08/08 05:02:23;;;;;;;;;;;;;;;;;;4899713;29;6985;-61
2022/08/08 05:04:48;;;;;;;;;;;;;;;;;;4899402;29;7028;-61
2022/08/08 05:07:14;;;;;;;;;;;;;;;;;;4899526;29;7422;-61
2022/08/08 05:09:41;;;;;;;;;;;;;;;;;;4932824;28;7423;-61
2022/08/08 05:12:08;;;;;;;;;;;;;;;;;;4951905;28;7002;-61
2022/08/08 05:14:33;;;;;;;;;;;;;;;;;;4950656;28;7037;-61
2022/08/08 05:16:59;;;;;;;;;;;;;;;;;;4927459;28;7162;-61
2022/08/08 05:19:38;;;;;;;;;;;;;;;;;;4935411;28;6990;-61
2022/08/08 05:22:07;;;;;;;;;;;;;;;;;;4996817;28;6981;-61
2022/08/08 05:24:33;;;;;;;;;;;;;;;;;;4997922;28;7505;-61
2022/08/08 05:29:56;;;;;;;;;;;;;;;;;;4997346;28;7025;-62
2022/08/08 05:35:44;;;;;;;;;;;;;;;;;;4997575;28;6706;-61
2022/08/08 05:38:14;;;;;;;;;;;;;;;;;;4997044;28;7210;-61
2022/08/08 05:43:49;;;;;;;;;;;;;;;;;;4997808;28;6719;-61
2022/08/08 05:46:15;;;;;;;;;;;;;;;;;;4997638;28;7159;-61
2022/08/08 05:49:09;;;;;;;;;;;;;;;;;;4997242;28;7132;-61
2022/08/08 05:51:35;;;;;;;;;;;;;;;;;;4997855;28;7179;-61
2022/08/08 05:54:18;;;;;;;;;;;;;;;;;;4996960;28;7023;-60
2022/08/08 05:56:44;;;;;;;;;;;;;;;;;;4941710;28;7240;-60
2022/08/08 05:59:32;;;;;;;;;;;;;;;;;;4950216;28;7229;-60
2022/08/08 06:01:59;;;;;;;;;;;;;;;;;;4918674;28;7186;-58
2022/08/08 06:04:33;;;;;;;;;;;;;;;;;;4996987;28;7427;-58
2022/08/08 06:06:59;;;;;;;;;;;;;;;;;;4996714;28;7271;-58
2022/08/08 06:18:42;;;;;;;;;;;;;;;;;;4996287;28;6710;-58
2022/08/08 06:21:08;;;;;;;;;;;;;;;;;;4996525;28;6967;-58
2022/08/08 06:23:34;;;;;;;;;;;;;;;;;;4996166;28;6938;-58
2022/08/08 06:26:20;;;;;;;;;;;;;;;;;;4996965;28;7163;-58
2022/08/08 06:28:51;;;;;;;;;;;;;;;;;;4996129;28;7515;-59
2022/08/08 06:37:46;;;;;;;;;;;;;;;;;;4996578;28;7071;-58
2022/08/08 06:40:14;;;;;;;;;;;;;;;;;;4996473;28;7275;-58
2022/08/08 06:45:57;;;;;;;;;;;;;;;;;;4996259;28;6964;-58
2022/08/08 06:48:23;;;;;;;;;;;;;;;;;;4995826;28;7422;-58
2022/08/08 06:50:58;;;;;;;;;;;;;;;;;;4996351;28;6951;-58
2022/08/08 06:53:24;;;;;;;;;;;;;;;;;;4996417;28;7260;-58
2022/08/08 06:56:12;;;;;;;;;;;;;;;;;;4979204;28;8800;-58
2022/08/08 06:58:38;;;;;;;;;;;;;;;;;;4995949;28;7395;-58
2022/08/08 07:04:09;;;;;;;;;;;;;;;;;;4995923;28;7038;-58
2022/08/08 07:06:37;;;;;;;;;;;;;;;;;;4996068;28;7599;-59
2022/08/08 07:09:14;;;;;;;;;;;;;;;;;;4995817;28;7173;-58
2022/08/08 07:11:44;;;;;;;;;;;;;;;;;;4995758;28;7445;-58
2022/08/08 07:17:39;;;;;;;;;;;;;;;;;;4995700;28;6722;-58
2022/08/08 07:20:06;;;;;;;;;;;;;;;;;;4995413;28;7047;-59
2022/08/08 07:22:50;;;;;;;;;;;;;;;;;;4995913;28;7538;-58
2022/08/08 07:25:51;;;;;;;;;;;;;;;;;;4995658;28;7425;-59
2022/08/08 07:28:18;;;;;;;;;;;;;;;;;;4995241;28;7500;-59
2022/08/08 07:30:44;;;;;;;;;;;;;;;;;;4995661;28;7180;-58
2022/08/08 07:33:22;;;;;;;;;;;;;;;;;;4995758;28;7375;-59
2022/08/08 07:35:48;;;;;;;;;;;;;;;;;;4995658;28;7462;-59
2022/08/08 07:38:17;;;;;;;;;;;;;;;;;;4995204;28;8049;-58
2022/08/08 07:40:44;;;;;;;;;;;;;;;;;;4995363;28;6979;-59
2022/08/08 07:43:15;;;;;;;;;;;;;;;;;;4995396;28;7003;-59
2022/08/08 07:45:42;;;;;;;;;;;;;;;;;;4995136;28;7138;-59
2022/08/08 07:48:08;;;;;;;;;;;;;;;;;;4995091;28;7443;-59
2022/08/08 07:50:36;;;;;;;;;;;;;;;;;;4995478;28;7201;-59
2022/08/08 07:56:25;;;;;;;;;;;;;;;;;;4995161;28;6731;-58
2022/08/08 07:58:51;;;;;;;;;;;;;;;;;;4995072;28;7174;-59
2022/08/08 08:01:21;;;;;;;;;;;;;;;;;;4995333;28;7228;-58
2022/08/08 08:04:02;;;;;;;;;;;;;;;;;;4994476;28;7455;-59
2022/08/08 08:06:36;;;;;;;;;;;;;;;;;;4994808;28;7024;-59
2022/08/08 08:09:02;;;;;;;;;;;;;;;;;;4994998;28;7115;-58
2022/08/08 08:11:31;;;;;;;;;;;;;;;;;;4995385;28;7143;-59
2022/08/08 08:14:07;;;;;;;;;;;;;;;;;;4977446;28;8431;-59
2022/08/08 08:17:00;;;;;;;;;;;;;;;;;;4994968;28;7156;-60
2022/08/08 08:19:31;;;;;;;;;;;;;;;;;;4970928;28;7077;-60
2022/08/08 08:28:36;;;;;;;;;;;;;;;;;;4933883;29;6698;-61
2022/08/08 08:31:04;;;;;;;;;;;;;;;;;;4934620;29;7164;-60
2022/08/08 08:39:52;;;;;;;;;;;;;;;;;;4933783;29;7029;-60
2022/08/08 08:42:18;;;;;;;;;;;;;;;;;;4933816;29;7236;-60
2022/08/08 08:47:49;;;;;;;;;;;;;;;;;;4933642;29;7028;-60
2022/08/08 08:50:14;;;;;;;;;;;;;;;;;;4933981;29;7194;-60
2022/08/08 08:52:42;;;;;;;;;;;;;;;;;;4934150;29;7119;-60
2022/08/08 08:55:11;;;;;;;;;;;;;;;;;;4933792;29;7220;-60
2022/08/08 08:57:42;;;;;;;;;;;;;;;;;;4933591;28;6964;-60
2022/08/08 09:00:09;;;;;;;;;;;;;;;;;;4933713;29;7004;-60
2022/08/08 09:02:55;;;;;;;;;;;;;;;;;;4933827;28;7155;-60
2022/08/08 09:05:21;;;;;;;;;;;;;;;;;;4934033;29;7469;-60
2022/08/08 09:07:50;;;;;;;;;;;;;;;;;;4933588;29;7181;-61
2022/08/08 09:10:17;;;;;;;;;;;;;;;;;;4933803;29;7456;-61
2022/08/08 09:13:05;;;;;;;;;;;;;;;;;;4932387;29;9666;-61
2022/08/08 09:15:31;;;;;;;;;;;;;;;;;;4934871;29;7219;-61
2022/08/08 09:18:06;;;;;;;;;;;;;;;;;;4936957;28;6854;-61
2022/08/08 09:20:32;;;;;;;;;;;;;;;;;;4999874;28;9323;-61
2022/08/08 09:23:14;;;;;;;;;;;;;;;;;;5037516;28;7231;-61
2022/08/08 09:25:44;;;;;;;;;;;;;;;;;;5037929;28;7226;-60
2022/08/08 09:28:28;;;;;;;;;;;;;;;;;;5037036;28;7370;-60
2022/08/08 09:31:01;;;;;;;;;;;;;;;;;;5036881;28;7421;-60
2022/08/08 09:33:32;;;;;;;;;;;;;;;;;;5037189;28;7477;-60
2022/08/08 09:35:57;;;;;;;;;;;;;;;;;;5037118;28;7168;-60
2022/08/08 09:44:15;;;;;;;;;;;;;;;;;;5037716;28;7083;-60
2022/08/08 09:46:49;;;;;;;;;;;;;;;;;;5036810;28;7412;-60
2022/08/08 09:49:18;;;;;;;;;;;;;;;;;;5036585;28;7180;-60
2022/08/08 09:51:54;;;;;;;;;;;;;;;;;;5036891;28;7104;-61
2022/08/08 09:54:25;;;;;;;;;;;;;;;;;;5037164;28;7005;-60
2022/08/08 09:57:04;;;;;;;;;;;;;;;;;;5036772;28;6860;-60
2022/08/08 09:59:31;;;;;;;;;;;;;;;;;;5036421;28;7287;-57
2022/08/08 10:02:18;;;;;;;;;;;;;;;;;;5036244;28;8300;-58
2022/08/08 10:04:44;;;;;;;;;;;;;;;;;;5036426;28;7241;-60
2022/08/08 10:07:26;;;;;;;;;;;;;;;;;;5036575;28;7460;-60
2022/08/08 10:09:51;;;;;;;;;;;;;;;;;;5036330;28;7530;-60
2022/08/08 10:12:37;;;;;;;;;;;;;;;;;;5036570;28;6976;-61
2022/08/08 10:15:05;;;;;;;;;;;;;;;;;;5036650;28;7241;-60
2022/08/08 10:17:45;;;;;;;;;;;;;;;;;;5036420;28;7170;-58
2022/08/08 10:20:12;;;;;;;;;;;;;;;;;;5036007;28;7056;-57
2022/08/08 10:22:43;;;;;;;;;;;;;;;;;;5036242;28;7259;-58
2022/08/08 10:34:25;;;;;;;;;;;;;;;;;;5035791;28;7447;-58
2022/08/08 10:36:51;;;;;;;;;;;;;;;;;;5035913;28;7097;-58
2022/08/08 10:39:24;;;;;;;;;;;;;;;;;;5035600;28;7194;-58
2022/08/08 10:42:00;;;;;;;;;;;;;;;;;;5035567;28;7964;-58
2022/08/08 10:44:39;;;;;;;;;;;;;;;;;;5018287;28;8578;-58
2022/08/08 10:47:08;;;;;;;;;;;;;;;;;;5034985;28;7184;-60
2022/08/08 10:49:34;;;;;;;;;;;;;;;;;;5035407;28;6984;-60
2022/08/08 10:58:07;;;;;;;;;;;;;;;;;;5035181;28;7158;-60
2022/08/08 11:00:34;;;;;;;;;;;;;;;;;;5035652;28;7089;-60
2022/08/08 11:09:22;;;;;;;;;;;;;;;;;;5035076;28;6725;-58
2022/08/08 11:11:52;;;;;;;;;;;;;;;;;;5035379;28;7095;-58
2022/08/08 11:14:28;;;;;;;;;;;;;;;;;;5035384;28;7097;-58
2022/08/08 11:16:53;;;;;;;;;;;;;;;;;;5035449;28;7378;-58
2022/08/08 11:19:24;;;;;;;;;;;;;;;;;;5015066;28;7412;-58
2022/08/08 11:21:51;;;;;;;;;;;;;;;;;;5035154;28;7363;-58
2022/08/08 11:24:41;;;;;;;;;;;;;;;;;;5035260;28;7497;-58
2022/08/08 11:27:07;;;;;;;;;;;;;;;;;;5034760;28;7092;-58
2022/08/08 11:29:35;;;;;;;;;;;;;;;;;;5034445;28;7131;-57
2022/08/08 11:32:02;;;;;;;;;;;;;;;;;;5034334;28;7258;-58
2022/08/08 11:37:18;;;;;;;;;;;;;;;;;;5034718;28;7011;-58
2022/08/08 11:42:41;;;;;;;;;;;;;;;;;;5034785;28;7022;-58
2022/08/08 11:45:30;;;;;;;;;;;;;;;;;;5034654;28;7016;-58
2022/08/08 11:47:56;;;;;;;;;;;;;;;;;;5033164;28;8869;-58
2022/08/08 11:53:57;;;;;;;;;;;;;;;;;;5034543;28;6738;-58
2022/08/08 11:56:22;;;;;;;;;;;;;;;;;;5033405;28;7085;-58
2022/08/08 11:59:21;;;;;;;;;;;;;;;;;;5034107;28;7229;-59
2022/08/08 12:01:46;;;;;;;;;;;;;;;;;;5034218;28;7543;-59
2022/08/08 12:04:12;;;;;;;;;;;;;;;;;;5034710;28;6983;-59
2022/08/08 12:06:38;;;;;;;;;;;;;;;;;;5033069;28;7112;-59
2022/08/08 12:09:09;;;;;;;;;;;;;;;;;;5033441;28;9519;-59
2022/08/08 12:14:42;;;;;;;;;;;;;;;;;;5034221;28;6741;-58
2022/08/08 12:17:08;;;;;;;;;;;;;;;;;;5033792;28;7188;-58
2022/08/08 12:20:03;;;;;;;;;;;;;;;;;;5012736;28;7167;-58
2022/08/08 12:22:31;;;;;;;;;;;;;;;;;;4915611;28;7484;-58
2022/08/08 12:25:18;;;;;;;;;;;;;;;;;;4915377;29;7410;-58
2022/08/08 12:27:43;;;;;;;;;;;;;;;;;;4915045;29;7185;-58
2022/08/08 12:30:16;;;;;;;;;;;;;;;;;;4915210;29;7153;-58
2022/08/08 12:32:44;;;;;;;;;;;;;;;;;;4915212;29;7476;-58
2022/08/08 12:35:22;;;;;;;;;;;;;;;;;;4915220;29;7192;-58
2022/08/08 12:38:06;;;;;;;;;;;;;;;;;;4915085;29;7231;-58
2022/08/08 12:43:36;;;;;;;;;;;;;;;;;;4914963;29;7122;-58
2022/08/08 12:46:14;;;;;;;;;;;;;;;;;;4915219;28;7206;-58
2022/08/08 12:48:41;;;;;;;;;;;;;;;;;;4914878;29;7466;-58
2022/08/08 12:54:14;;;;;;;;;;;;;;;;;;4918211;29;6728;-58
2022/08/08 12:56:39;;;;;;;;;;;;;;;;;;4918220;29;7153;-58
2022/08/08 12:59:24;;;;;;;;;;;;;;;;;;4917884;29;7067;-58
2022/08/08 13:01:54;;;;;;;;;;;;;;;;;;4918103;28;7007;-58
2022/08/08 13:04:54;;;;;;;;;;;;;;;;;;4918547;28;7144;-58
2022/08/08 13:07:20;;;;;;;;;;;;;;;;;;4918194;28;7302;-58
2022/08/08 13:10:06;;;;;;;;;;;;;;;;;;4917810;29;7281;-58
2022/08/08 13:12:38;;;;;;;;;;;;;;;;;;4918157;29;7077;-58
2022/08/08 13:18:15;;;;;;;;;;;;;;;;;;4917303;29;6739;-58
2022/08/08 13:27:14;;;;;;;;;;;;;;;;;;5037103;28;7056;-58
2022/08/08 13:29:50;;;;;;;;;;;;;;;;;;5036953;28;7056;-63
2022/08/08 13:38:45;;;;;;;;;;;;;;;;;;5036479;28;6975;-58
2022/08/08 13:41:11;;;;;;;;;;;;;;;;;;5037226;28;7492;-57
2022/08/08 13:46:59;;;;;;;;;;;;;;;;;;5036907;28;6723;-56
2022/08/08 13:49:29;;;;;;;;;;;;;;;;;;5036756;28;7194;-58
2022/08/08 13:51:56;;;;;;;;;;;;;;;;;;5036827;28;7258;-57
2022/08/08 13:54:23;;;;;;;;;;;;;;;;;;5036693;28;7480;-59
2022/08/08 13:57:00;;;;;;;;;;;;;;;;;;5036681;28;7538;-59
2022/08/08 13:59:30;;;;;;;;;;;;;;;;;;5036243;28;7097;-59
2022/08/08 14:02:12;;;;;;;;;;;;;;;;;;5036031;28;7069;-58
2022/08/08 14:04:38;;;;;;;;;;;;;;;;;;5036764;28;7068;-58
2022/08/08 14:07:40;;;;;;;;;;;;;;;;;;5036529;28;7109;-58
2022/08/08 14:10:11;;;;;;;;;;;;;;;;;;5035919;28;7181;-59
2022/08/08 14:16:00;;;;;;;;;;;;;;;;;;5036190;28;7045;-57
2022/08/08 14:18:26;;;;;;;;;;;;;;;;;;5036067;28;7262;-51
2022/08/08 14:20:59;;;;;;;;;;;;;;;;;;5014077;28;7210;-58
2022/08/08 14:23:25;;;;;;;;;;;;;;;;;;5036166;28;7469;-58
2022/08/08 14:26:01;;;;;;;;;;;;;;;;;;5036214;28;7059;-57
2022/08/08 14:28:27;;;;;;;;;;;;;;;;;;5035767;28;7070;-58
2022/08/08 14:30:58;;;;;;;;;;;;;;;;;;5035987;28;7426;-58
2022/08/08 14:33:26;;;;;;;;;;;;;;;;;;5036356;28;7151;-52
2022/08/08 14:36:19;;;;;;;;;;;;;;;;;;5035992;28;7177;-57
2022/08/08 14:38:49;;;;;;;;;;;;;;;;;;5035663;28;7399;-57
2022/08/08 14:50:20;;;;;;;;;;;;;;;;;;5035938;28;6898;-57
2022/08/08 14:53:14;;;;;;;;;;;;;;;;;;5035739;28;7371;-58
2022/08/08 14:55:40;;;;;;;;;;;;;;;;;;5035801;28;7365;-58
2022/08/08 14:58:06;;;;;;;;;;;;;;;;;;5035567;28;7219;-58
2022/08/08 15:00:43;;;;;;;;;;;;;;;;;;5035698;28;7071;-58
2022/08/08 15:06:11;;;;;;;;;;;;;;;;;;5035431;28;7041;-58
2022/08/08 15:08:40;;;;;;;;;;;;;;;;;;5035273;28;7190;-58
2022/08/08 15:11:07;;;;;;;;;;;;;;;;;;5035381;28;7229;-58
2022/08/08 15:16:52;;;;;;;;;;;;;;;;;;5015336;28;7000;-58
2022/08/08 15:19:17;;;;;;;;;;;;;;;;;;5015448;28;7286;-57
2022/08/08 15:21:43;;;;;;;;;;;;;;;;;;4990069;28;7003;-58
2022/08/08 15:24:09;;;;;;;;;;;;;;;;;;5015371;28;7182;-58
2022/08/08 15:26:35;;;;;;;;;;;;;;;;;;5015355;28;7562;-58
2022/08/08 15:29:00;;;;;;;;;;;;;;;;;;5015320;28;7332;-58
2022/08/08 15:31:26;;;;;;;;;;;;;;;;;;5015255;28;7211;-58
2022/08/08 15:34:16;;;;;;;;;;;;;;;;;;5015248;28;7115;-58
2022/08/08 15:36:41;;;;;;;;;;;;;;;;;;5015212;28;7215;-58
2022/08/08 15:42:10;;;;;;;;;;;;;;;;;;5014971;28;7043;-58
2022/08/08 15:45:12;;;;;;;;;;;;;;;;;;5015133;28;7207;-58
2022/08/08 15:51:15;;;;;;;;;;;;;;;;;;5014759;28;6772;-58
2022/08/08 15:53:55;;;;;;;;;;;;;;;;;;5013934;28;7493;-57
2022/08/08 15:56:21;;;;;;;;;;;;;;;;;;5014623;28;7089;-57
2022/08/08 15:59:05;;;;;;;;;;;;;;;;;;5014622;28;7202;-57
2022/08/08 16:01:31;;;;;;;;;;;;;;;;;;5014483;28;7257;-58
2022/08/08 16:04:34;;;;;;;;;;;;;;;;;;5007071;28;8432;-61
2022/08/08 16:06:59;;;;;;;;;;;;;;;;;;5034493;28;7097;-57
2022/08/08 16:09:27;;;;;;;;;;;;;;;;;;5034199;28;7039;-61
2022/08/08 16:11:53;;;;;;;;;;;;;;;;;;5034575;28;7132;-57
2022/08/08 16:14:18;;;;;;;;;;;;;;;;;;5034271;28;6994;-59
2022/08/08 16:16:48;;;;;;;;;;;;;;;;;;5024165;28;7007;-59
2022/08/08 16:19:14;;;;;;;;;;;;;;;;;;5022053;28;7494;-59
2022/08/08 16:24:42;;;;;;;;;;;;;;;;;;5016389;28;6980;-59
2022/08/08 16:27:27;;;;;;;;;;;;;;;;;;5018743;28;7395;-59
2022/08/08 16:29:53;;;;;;;;;;;;;;;;;;5019049;28;7494;-58
2022/08/08 16:32:20;;;;;;;;;;;;;;;;;;5018667;28;7209;-58
2022/08/08 16:34:45;;;;;;;;;;;;;;;;;;5018568;28;7101;-58
2022/08/08 16:37:18;;;;;;;;;;;;;;;;;;5018525;28;7208;-62
2022/08/08 16:39:43;;;;;;;;;;;;;;;;;;5018457;28;7481;-58
2022/08/08 16:42:09;;;;;;;;;;;;;;;;;;5019638;28;7526;-58
2022/08/08 16:44:34;;;;;;;;;;;;;;;;;;5018513;28;7169;-58
2022/08/08 16:47:19;;;;;;;;;;;;;;;;;;5018370;28;6966;-58
2022/08/08 16:49:45;;;;;;;;;;;;;;;;;;5018242;28;7222;-58
2022/08/08 16:52:10;;;;;;;;;;;;;;;;;;5018310;28;6872;-58
2022/08/08 16:54:43;;;;;;;;;;;;;;;;;;5018226;28;7142;-58
2022/08/08 17:09:20;;;;;;;;;;;;;;;;;;5017715;28;7425;-59
2022/08/08 17:14:48;;;;;;;;;;;;;;;;;;5017509;28;6962;-57
2022/08/08 17:17:14;;;;;;;;;;;;;;;;;;5017856;28;7256;-57
2022/08/08 17:19:40;;;;;;;;;;;;;;;;;;5024343;28;7942;-59
2022/08/08 17:22:07;;;;;;;;;;;;;;;;;;5032323;28;7505;-59
2022/08/08 17:25:05;;;;;;;;;;;;;;;;;;5037500;28;7223;-56
2022/08/08 17:27:31;;;;;;;;;;;;;;;;;;5024563;28;7053;-57
2022/08/08 17:29:57;;;;;;;;;;;;;;;;;;5017685;28;7955;-57
2022/08/08 17:32:23;;;;;;;;;;;;;;;;;;5032141;28;7061;-57
2022/08/08 17:34:51;;;;;;;;;;;;;;;;;;5037285;28;6979;-57
2022/08/08 17:37:18;;;;;;;;;;;;;;;;;;5036321;28;8040;-57
2022/08/08 17:39:44;;;;;;;;;;;;;;;;;;5037785;28;6945;-58
2022/08/08 17:42:09;;;;;;;;;;;;;;;;;;5037178;28;7030;-57
2022/08/08 17:44:35;;;;;;;;;;;;;;;;;;5037131;28;7115;-58
2022/08/08 17:47:01;;;;;;;;;;;;;;;;;;5037154;28;7085;-59
2022/08/08 17:49:26;;;;;;;;;;;;;;;;;;5036953;28;7139;-59
2022/08/08 18:03:50;;;;;;;;;;;;;;;;;;5037139;28;7041;-57
2022/08/08 18:09:19;;;;;;;;;;;;;;;;;;5036365;28;7029;-57
2022/08/08 18:11:45;;;;;;;;;;;;;;;;;;5036246;28;7255;-57
2022/08/08 18:14:12;;;;;;;;;;;;;;;;;;5037793;28;7165;-57
2022/08/08 18:16:38;;;;;;;;;;;;;;;;;;5036220;28;8139;-57
2022/08/08 18:19:13;;;;;;;;;;;;;;;;;;5035974;28;7208;-57
2022/08/08 18:21:40;;;;;;;;;;;;;;;;;;5025402;28;7184;-57
2022/08/08 18:24:06;;;;;;;;;;;;;;;;;;5036086;28;7191;-57
2022/08/08 18:26:32;;;;;;;;;;;;;;;;;;5036203;28;7452;-57
2022/08/08 18:29:07;;;;;;;;;;;;;;;;;;5035936;28;6932;-57
2022/08/08 18:31:34;;;;;;;;;;;;;;;;;;5037143;28;6989;-57
2022/08/08 18:34:00;;;;;;;;;;;;;;;;;;5017793;28;9452;-57
2022/08/08 18:36:26;;;;;;;;;;;;;;;;;;5036353;28;7184;-57
2022/08/08 18:38:51;;;;;;;;;;;;;;;;;;5035650;28;7154;-57
2022/08/08 18:44:46;;;;;;;;;;;;;;;;;;5036030;28;6842;-57
2022/08/08 18:47:11;;;;;;;;;;;;;;;;;;5035715;28;7124;-57
2022/08/08 18:49:37;;;;;;;;;;;;;;;;;;5035845;28;7255;-57
2022/08/08 18:55:05;;;;;;;;;;;;;;;;;;5035621;28;6701;-57
2022/08/08 18:57:31;;;;;;;;;;;;;;;;;;5035538;28;7306;-56
2022/08/08 19:00:01;;;;;;;;;;;;;;;;;;5035958;28;7078;-57
2022/08/08 19:02:29;;;;;;;;;;;;;;;;;;5035675;28;7110;-56
2022/08/08 19:04:54;;;;;;;;;;;;;;;;;;5035278;28;7428;-56
2022/08/08 19:07:21;;;;;;;;;;;;;;;;;;5018498;28;7057;-56
2022/08/08 19:10:12;;;;;;;;;;;;;;;;;;5034910;28;7486;-57
2022/08/08 19:12:38;;;;;;;;;;;;;;;;;;5034989;28;7287;-57
2022/08/08 19:15:05;;;;;;;;;;;;;;;;;;5035527;28;7262;-57
2022/08/08 19:23:24;;;;;;;;;;;;;;;;;;5035127;28;6980;-57
2022/08/08 19:26:25;;;;;;;;;;;;;;;;;;5031809;28;7207;-56
2022/08/08 19:28:51;;;;;;;;;;;;;;;;;;5034641;28;7023;-56
2022/08/08 19:31:38;;;;;;;;;;;;;;;;;;5018919;28;7364;-55
2022/08/08 19:34:05;;;;;;;;;;;;;;;;;;5032174;28;7066;-56
2022/08/08 19:36:37;;;;;;;;;;;;;;;;;;5025187;28;7173;-57
2022/08/08 19:39:02;;;;;;;;;;;;;;;;;;5014828;28;6934;-57
2022/08/08 19:44:31;;;;;;;;;;;;;;;;;;5034725;28;7014;-57
2022/08/08 19:49:59;;;;;;;;;;;;;;;;;;5034472;28;7022;-56
2022/08/08 19:52:25;;;;;;;;;;;;;;;;;;5034886;28;6958;-55
2022/08/08 19:54:57;;;;;;;;;;;;;;;;;;5034018;28;7084;-55
2022/08/08 19:57:23;;;;;;;;;;;;;;;;;;5034818;28;7197;-55
2022/08/08 19:59:48;;;;;;;;;;;;;;;;;;5033781;28;7195;-54
2022/08/08 20:02:14;;;;;;;;;;;;;;;;;;5034066;28;7641;-55
2022/08/08 20:04:39;;;;;;;;;;;;;;;;;;5034686;28;7138;-56
2022/08/08 20:07:19;;;;;;;;;;;;;;;;;;5034470;28;7164;-56
2022/08/08 20:09:44;;;;;;;;;;;;;;;;;;5034274;28;7178;-56
2022/08/08 20:12:10;;;;;;;;;;;;;;;;;;5034626;28;7130;-54
2022/08/08 20:14:46;;;;;;;;;;;;;;;;;;5033882;28;7518;-54
2022/08/08 20:17:12;;;;;;;;;;;;;;;;;;5034606;28;7123;-55
2022/08/08 20:19:53;;;;;;;;;;;;;;;;;;5034254;28;6978;-57
2022/08/08 20:25:41;;;;;;;;;;;;;;;;;;5034132;28;6697;-56
2022/08/08 20:28:06;;;;;;;;;;;;;;;;;;5034133;28;7228;-55
2022/08/08 20:30:38;;;;;;;;;;;;;;;;;;5034155;28;7149;-55
2022/08/08 20:33:05;;;;;;;;;;;;;;;;;;5025672;28;7227;-55
2022/08/08 20:38:40;;;;;;;;;;;;;;;;;;5014693;28;6766;-55
2022/08/08 20:41:06;;;;;;;;;;;;;;;;;;5014541;28;7240;-56
2022/08/08 20:43:32;;;;;;;;;;;;;;;;;;5014720;28;7158;-56
2022/08/08 20:49:16;;;;;;;;;;;;;;;;;;5014243;28;7041;-56
2022/08/08 20:51:41;;;;;;;;;;;;;;;;;;5033804;28;6827;-54
2022/08/08 20:54:07;;;;;;;;;;;;;;;;;;5034217;28;7156;-55
2022/08/08 20:56:32;;;;;;;;;;;;;;;;;;5034249;28;7358;-55
2022/08/08 21:02:18;;;;;;;;;;;;;;;;;;5033911;28;6852;-55
2022/08/08 21:04:43;;;;;;;;;;;;;;;;;;5022737;28;7192;-56
2022/08/08 21:07:09;;;;;;;;;;;;;;;;;;5014450;28;7405;-54
2022/08/08 21:09:35;;;;;;;;;;;;;;;;;;5029620;28;6937;-53
2022/08/08 21:12:18;;;;;;;;;;;;;;;;;;5037577;28;6939;-54
2022/08/08 21:18:08;;;;;;;;;;;;;;;;;;5037580;28;6921;-52
2022/08/08 21:20:34;;;;;;;;;;;;;;;;;;5038125;28;7440;-54
2022/08/08 21:23:00;;;;;;;;;;;;;;;;;;4976264;28;7457;-55
2022/08/08 21:25:25;;;;;;;;;;;;;;;;;;4937051;28;7099;-56
2022/08/08 21:27:51;;;;;;;;;;;;;;;;;;4937001;28;6946;-54
2022/08/08 21:33:29;;;;;;;;;;;;;;;;;;4936743;29;6695;-55
2022/08/08 21:35:55;;;;;;;;;;;;;;;;;;4937068;28;7140;-54
2022/08/08 21:38:20;;;;;;;;;;;;;;;;;;4936851;29;7037;-52
2022/08/08 21:40:49;;;;;;;;;;;;;;;;;;4936970;28;7230;-56
2022/08/08 21:43:15;;;;;;;;;;;;;;;;;;4936801;28;7346;-54
2022/08/08 21:48:43;;;;;;;;;;;;;;;;;;4936421;29;6915;-54
2022/08/08 21:51:09;;;;;;;;;;;;;;;;;;4936469;28;7848;-55
2022/08/08 22:03:17;;;;;;;;;;;;;;;;;;4936361;29;7056;-54
2022/08/08 22:05:42;;;;;;;;;;;;;;;;;;4937333;28;8906;-53
2022/08/08 22:11:10;;;;;;;;;;;;;;;;;;4936171;29;6699;-52
2022/08/08 22:13:49;;;;;;;;;;;;;;;;;;4937041;28;7141;-55
2022/08/08 22:16:16;;;;;;;;;;;;;;;;;;4936014;29;6886;-56
2022/08/08 22:18:46;;;;;;;;;;;;;;;;;;4936478;28;6954;-55
2022/08/08 22:21:14;;;;;;;;;;;;;;;;;;4936192;29;6977;-54
2022/08/08 22:23:41;;;;;;;;;;;;;;;;;;4935360;28;7009;-55
2022/08/08 22:29:01;;;;;;;;;;;;;;;;;;4936488;29;7201;-53
2022/08/08 22:34:47;;;;;;;;;;;;;;;;;;4935845;29;6694;-54
2022/08/08 22:37:12;;;;;;;;;;;;;;;;;;4936565;28;7112;-53
2022/08/08 22:39:40;;;;;;;;;;;;;;;;;;4935844;28;7314;-52
2022/08/08 22:42:08;;;;;;;;;;;;;;;;;;4936816;28;7254;-55
2022/08/08 22:44:40;;;;;;;;;;;;;;;;;;4935953;28;7223;-55
2022/08/08 22:47:06;;;;;;;;;;;;;;;;;;4935779;29;7204;-55
2022/08/08 22:55:37;;;;;;;;;;;;;;;;;;4935659;29;6689;-54
2022/08/08 22:58:03;;;;;;;;;;;;;;;;;;4935776;28;6939;-54
2022/08/08 23:03:31;;;;;;;;;;;;;;;;;;4935488;29;6696;-59
2022/08/08 23:05:57;;;;;;;;;;;;;;;;;;5017874;28;8418;-59
2022/08/08 23:14:28;;;;;;;;;;;;;;;;;;4935366;29;6949;-59
2022/08/08 23:17:21;;;;;;;;;;;;;;;;;;4935637;28;7192;-59
2022/08/08 23:19:49;;;;;;;;;;;;;;;;;;4935010;28;6956;-59
2022/08/08 23:22:42;;;;;;;;;;;;;;;;;;4935387;28;7162;-59
2022/08/08 23:25:08;;;;;;;;;;;;;;;;;;4916355;28;7512;-59
2022/08/08 23:39:45;;;;;;;;;;;;;;;;;;4915924;29;7030;-59
2022/08/08 23:48:43;;;;;;;;;;;;;;;;;;4915686;29;6985;-59
2022/08/08 23:51:09;;;;;;;;;;;;;;;;;;4915866;29;7451;-59
2022/08/08 23:53:35;;;;;;;;;;;;;;;;;;4916118;29;7232;-59
2022/08/08 23:56:16;;;;;;;;;;;;;;;;;;4915979;28;7200;-59
2022/08/08 23:58:41;;;;;;;;;;;;;;;;;;4915842;29;7042;-59
